Aeroporto :
LOGIN :

Iscrizione | Disclaimer

   EN    FR    IT 

 










Sommario :    VFR   VFR Marginale   IFR   IFR Intensivo   IFR Molto Intensivo
Visibilità : 
Base nubi : 
>= 8 km
>= 3000ft
5 / 8 km
1000 / 3000 ft
1500m / 5 km
500 / 1000 ft
800 / 1500m
200 / 500 ft
< 800m
< 200 ft
Simboli :   Temporali  Nebbia  Neve Forte  Precipitazioni Forti  Vento > 20 kt
SIGMETs :   Varie  Temporali  Ghiacco  Turbolenza  Onda orograficha  Ceneri Vulcaniche






- Altitudine del aeroporto : 1682 ft
- Codice IATA : VIT


LEVT - Vitoria Gasteiz

ULTIMO METAR :
  • 212100Z VRB02KT 9999 FEW030 04/02 Q1005

METARs OBSOLETI :
  • 212030Z VRB01KT 9999 FEW030 03/02 Q1006
  • 212000Z VRB01KT 9999 FEW030 04/02 Q1006
  • 211930Z 01003KT 330V040 9999 FEW030 04/02 Q1006
  • 211900Z 25001KT 9999 FEW030 05/03 Q1006
  • 211830Z 22006KT 9999 FEW030 SCT065 05/03 Q1006

TAF TAF LEVT
Valido dal 21 a 18 ore il 22 a 18 ore UTC


211700Z 2118/2218 21009KT 9999 FEW020 SCT030 TX09/2217Z TN02/2122Z
TEMPO 2208/2218 17015G30KT 4000 RA



MetMap, La meteo Aeronautica in un colpo d'occhio ! - Copyright ORBIFLY Dicembre 2007 - Disclaimer

ORBIFLY MET'MAP TEAM :

Programmazione e sviluppo : Alexandra Zaïnal
Concezione e sviluppo : Baudouin d'Aumeries
Co-Programmazione e sviluppo : Marc-Olivier Méhu
Supporto tecnico e logistico : Manuel Goepfert
Aiuto per la traduzione : Arnaldo La Scala

Contatto : metmap@orbifly.com




FONTI E CREDITI :

   NOAA